Macwahoc Plt, Maine
Current Conditions -  °F | °C
As of 11:53 PM on Friday 19 Dec 2014 (Local Time) from KHUL Reporting Station
Clear Clear  
Wind Chill: 14°   Ceiling: Unl
Heat Index: 14°   Visibility: 10mi
Dew Point: 12°   Wind: 3mph
Humidity: 92%   Direction: 30°NNE
Pressure: 30.12"   Gusts: NA
Location:  45.6117°N, 68.2294°W
Report Text: KHUL 200453Z AUTO 03003KT 10SM CLR M10/M11 A3012 RMK AO2 SLP210 I1000 T11001111 410171111
Loading
Personal Weather Stations






























Interactive Weather Map New forecast layout! Learn more

10-Day Weather Forecast

Advertisements
Track Severe Weather on mobile